createdAt,value
2018-06-11T00:00:20.075Z,99100.98
2018-06-11T00:02:49.963Z,99098.08
2018-06-11T00:05:20.070Z,99093.36
2018-06-11T00:07:50.728Z,99090.56
2018-06-11T00:10:21.021Z,99088.50
2018-06-11T00:12:51.238Z,99090.33
2018-06-11T00:15:20.943Z,99084.85
2018-06-11T00:17:51.286Z,99085.45
2018-06-11T00:20:21.659Z,99093.20
2018-06-11T00:22:52.053Z,99099.16
2018-06-11T00:25:22.412Z,99103.30
2018-06-11T00:27:52.571Z,99100.98
2018-06-11T00:30:22.809Z,99105.84
2018-06-11T00:32:52.877Z,99102.66
2018-06-11T00:35:22.788Z,99100.91
2018-06-11T00:37:52.927Z,99096.54
2018-06-11T00:40:24.184Z,99099.31
2018-06-11T00:42:54.398Z,99096.88
2018-06-11T00:45:24.531Z,99104.27
2018-06-11T00:47:54.755Z,99102.58
2018-06-11T00:50:24.855Z,99108.41
2018-06-11T00:52:55.126Z,99102.45
2018-06-11T00:55:25.078Z,99109.48
2018-06-11T00:57:55.486Z,99104.77
2018-06-11T01:00:25.868Z,99102.70
2018-06-11T01:02:55.949Z,99108.18
2018-06-11T01:05:26.118Z,99106.12
2018-06-11T01:07:56.442Z,99110.75
2018-06-11T01:10:26.467Z,99103.80
2018-06-11T01:12:56.492Z,99110.48
2018-06-11T01:15:26.412Z,99105.77
2018-06-11T01:17:56.696Z,99107.45
2018-06-11T01:20:27.425Z,99111.10
2018-06-11T01:22:58.426Z,99107.75
2018-06-11T01:25:29.513Z,99106.77
2018-06-11T01:27:59.689Z,99105.77
2018-06-11T01:30:29.628Z,99101.27
2018-06-11T01:32:59.726Z,99105.63
2018-06-11T01:35:29.630Z,99103.80
2018-06-11T01:37:59.933Z,99101.49
2018-06-11T01:40:29.973Z,99101.13
2018-06-11T01:43:00.369Z,99105.77
2018-06-11T01:45:30.386Z,99102.23
2018-06-11T01:48:00.625Z,99105.07
2018-06-11T01:50:30.793Z,99109.44
2018-06-11T01:53:01.965Z,99108.23
2018-06-11T01:55:32.275Z,99106.25
2018-06-11T01:58:02.605Z,99102.11
2018-06-11T02:00:32.448Z,99107.23
2018-06-11T02:03:03.857Z,99100.65
2018-06-11T02:05:33.778Z,99108.41
2018-06-11T02:08:03.923Z,99102.45
2018-06-11T02:10:34.159Z,99096.81
2018-06-11T02:13:04.299Z,99101.89
2018-06-11T02:15:34.645Z,99106.98
2018-06-11T02:18:04.643Z,99098.70
2018-06-11T02:20:34.584Z,99093.81
2018-06-11T02:23:04.895Z,99091.85
2018-06-11T02:25:35.726Z,99090.22
2018-06-11T02:28:06.147Z,99092.89
2018-06-11T02:31:02.516Z,99097.39
2018-06-11T02:33:32.678Z,99095.21
2018-06-11T02:36:02.732Z,99096.55
2018-06-11T02:41:29.299Z,99101.05
2018-06-11T02:43:59.755Z,99107.56
2018-06-11T02:46:29.762Z,99114.93
2018-06-11T02:48:59.932Z,99121.77
2018-06-11T02:51:30.065Z,99122.23
2018-06-11T02:54:00.216Z,99120.62
2018-06-11T02:56:30.509Z,99120.45
2018-06-11T02:59:00.559Z,99127.50
2018-06-11T03:01:30.696Z,99130.05
2018-06-11T03:04:17.908Z,99141.23
2018-06-11T03:06:47.875Z,99139.05
2018-06-11T03:09:17.864Z,99135.40
2018-06-11T03:11:47.792Z,99150.83
2018-06-11T03:14:17.932Z,99148.87
2018-06-11T03:16:48.485Z,99145.92
2018-06-11T03:19:18.696Z,99144.81
2018-06-11T03:21:48.577Z,99153.06
2018-06-11T03:24:18.469Z,99157.44
2018-06-11T03:26:48.725Z,99149.69
2018-06-11T03:29:18.995Z,99158.66
2018-06-11T03:31:49.123Z,99162.05
2018-06-11T03:34:25.004Z,99161.06
2018-06-11T03:36:55.223Z,99164.84
2018-06-11T03:39:25.246Z,99153.98
2018-06-11T03:41:55.532Z,99161.38
2018-06-11T03:44:25.682Z,99156.16
2018-06-11T03:46:55.733Z,99156.46
2018-06-11T03:49:26.152Z,99159.14
2018-06-11T03:51:56.425Z,99158.26
2018-06-11T03:54:27.474Z,99155.13
2018-06-11T03:56:57.648Z,99168.92
2018-06-11T03:59:27.539Z,99161.83
2018-06-11T04:01:57.843Z,99160.44
2018-06-11T04:04:28.179Z,99164.51
2018-06-11T04:06:58.379Z,99161.56
2018-06-11T04:09:28.218Z,99166.02
2018-06-11T04:11:58.311Z,99166.16
2018-06-11T04:14:28.280Z,99167.58
2018-06-11T04:16:58.424Z,99171.33
2018-06-11T04:19:28.566Z,99173.02
2018-06-11T04:21:59.127Z,99179.36
2018-06-11T04:24:29.510Z,99172.23
2018-06-11T04:26:59.738Z,99181.25
2018-06-11T04:29:30.204Z,99175.62
2018-06-11T04:32:01.473Z,99186.11
2018-06-11T04:34:31.360Z,99190.84
2018-06-11T04:37:01.535Z,99200.98
2018-06-11T04:39:31.761Z,99202.13
2018-06-11T04:42:01.896Z,99201.77
2018-06-11T04:44:32.035Z,99206.82
2018-06-11T04:47:02.493Z,99201.99
2018-06-11T04:49:32.677Z,99205.66
2018-06-11T04:52:02.556Z,99210.30
2018-06-11T04:54:33.551Z,99209.31
2018-06-11T04:57:03.758Z,99210.66
2018-06-11T04:59:33.938Z,99208.69
2018-06-11T05:02:04.597Z,99205.44
2018-06-11T05:04:34.939Z,99209.54
2018-06-11T05:07:06.182Z,99211.95
2018-06-11T05:09:36.291Z,99211.67
2018-06-11T05:12:06.442Z,99205.39
2018-06-11T05:14:37.565Z,99211.05
2018-06-11T05:17:07.768Z,99218.32
2018-06-11T05:19:37.767Z,99223.45
2018-06-11T05:22:07.967Z,99218.67
2018-06-11T05:24:37.895Z,99221.65
2018-06-11T05:27:08.009Z,99224.10
2018-06-11T05:29:38.038Z,99228.59
2018-06-11T05:32:08.171Z,99224.51
2018-06-11T05:34:38.438Z,99230.28
2018-06-11T05:37:08.865Z,99228.84
2018-06-11T05:39:39.178Z,99231.31
2018-06-11T05:42:09.278Z,99230.05
2018-06-11T05:44:39.472Z,99229.34
2018-06-11T05:47:09.357Z,99237.72
2018-06-11T05:49:39.791Z,99241.11
2018-06-11T05:52:10.048Z,99243.86
2018-06-11T05:54:40.540Z,99241.31
2018-06-11T05:57:10.499Z,99242.48
2018-06-11T05:59:40.676Z,99245.69
2018-06-11T06:02:10.529Z,99248.02
2018-06-11T06:04:40.660Z,99252.99
2018-06-11T06:07:10.873Z,99248.19
2018-06-11T06:09:45.022Z,99247.34
2018-06-11T06:12:15.178Z,99255.52
2018-06-11T06:14:45.403Z,99248.70
2018-06-11T06:17:15.533Z,99252.29
2018-06-11T06:19:45.797Z,99262.30
2018-06-11T06:22:16.058Z,99255.12
2018-06-11T06:24:46.153Z,99252.98
2018-06-11T06:27:16.099Z,99252.73
2018-06-11T06:29:46.393Z,99258.23
2018-06-11T06:32:16.673Z,99254.84
2018-06-11T06:34:46.619Z,99269.59
2018-06-11T06:37:16.775Z,99258.73
2018-06-11T06:39:46.975Z,99257.72
2018-06-11T06:42:17.133Z,99257.80
2018-06-11T06:44:47.422Z,99257.57
2018-06-11T06:47:17.538Z,99261.18
2018-06-11T06:49:47.715Z,99262.32
2018-06-11T06:52:17.913Z,99263.56
2018-06-11T06:54:48.028Z,99268.44
2018-06-11T06:57:17.950Z,99275.85
2018-06-11T06:59:48.272Z,99278.61
2018-06-11T07:02:18.341Z,99275.08
2018-06-11T07:04:48.424Z,99282.49
2018-06-11T07:07:18.492Z,99277.27
2018-06-11T07:09:48.597Z,99277.84
2018-06-11T07:12:18.533Z,99280.88
2018-06-11T07:14:48.696Z,99274.70
2018-06-11T07:17:18.900Z,99277.46
2018-06-11T07:19:49.186Z,99274.01
2018-06-11T07:22:19.298Z,99269.06
2018-06-11T07:24:49.439Z,99261.13
2018-06-11T07:27:20.723Z,99262.36
2018-06-11T07:29:50.793Z,99264.36
2018-06-11T07:32:21.810Z,99260.90
2018-06-11T07:34:52.023Z,99263.25
2018-06-11T07:37:21.916Z,99277.63
2018-06-11T07:39:52.217Z,99265.53
2018-06-11T07:42:22.227Z,99265.53
2018-06-11T07:44:52.465Z,99266.86
2018-06-11T07:47:22.599Z,99278.34
2018-06-11T07:49:52.920Z,99267.19
2018-06-11T07:52:23.007Z,99276.34
2018-06-11T07:54:54.100Z,99266.39
2018-06-11T07:57:24.211Z,99265.64
2018-06-11T07:59:55.448Z,99268.33
2018-06-11T08:02:25.504Z,99280.44
2018-06-11T08:04:55.693Z,99279.17
2018-06-11T08:07:25.929Z,99276.16
2018-06-11T08:09:56.246Z,99294.70
2018-06-11T08:12:26.268Z,99278.73
2018-06-11T08:14:56.340Z,99277.89
2018-06-11T08:17:26.447Z,99287.68
2018-06-11T08:19:56.607Z,99296.27
2018-06-11T08:22:26.802Z,99277.77
2018-06-11T08:24:57.001Z,99278.81
2018-06-11T08:27:27.288Z,99285.81
2018-06-11T08:29:57.480Z,99281.36
2018-06-11T08:32:27.790Z,99276.05
2018-06-11T08:34:58.226Z,99289.42
2018-06-11T08:37:28.303Z,99284.61
2018-06-11T08:39:58.313Z,99279.50
2018-06-11T08:42:28.585Z,99267.36
2018-06-11T08:44:58.580Z,99264.78
2018-06-11T08:47:28.583Z,99265.70
2018-06-11T08:49:58.770Z,99271.27
2018-06-11T08:52:29.108Z,99268.97
2018-06-11T08:54:59.279Z,99282.20
2018-06-11T08:57:29.494Z,99286.32
2018-06-11T08:59:59.684Z,99274.45
2018-06-11T09:02:29.642Z,99281.80
2018-06-11T09:04:59.696Z,99281.41
2018-06-11T09:07:29.999Z,99278.91
2018-06-11T09:10:00.134Z,99282.10
2018-06-11T09:12:30.436Z,99277.41
2018-06-11T09:15:00.668Z,99287.02
2018-06-11T09:17:30.820Z,99276.08
2018-06-11T09:20:00.995Z,99284.07
2018-06-11T09:22:32.282Z,99278.98
2018-06-11T09:25:02.444Z,99286.86
2018-06-11T09:27:32.641Z,99288.84
2018-06-11T09:30:02.637Z,99287.41
2018-06-11T09:32:32.941Z,99289.50
2018-06-11T09:40:09.016Z,99288.97
2018-06-11T09:42:39.059Z,99298.06
2018-06-11T09:45:08.771Z,99292.33
2018-06-11T09:47:38.721Z,99287.35
2018-06-11T09:50:08.879Z,99286.00
2018-06-11T09:52:39.139Z,99295.55
2018-06-11T09:55:09.607Z,99293.77
2018-06-11T09:57:40.014Z,99303.19
2018-06-11T10:00:13.906Z,99292.77
2018-06-11T10:02:43.982Z,99300.58
2018-06-11T10:05:15.019Z,99297.70
2018-06-11T10:07:45.066Z,99303.97
2018-06-11T10:10:15.364Z,99299.72
2018-06-11T10:12:45.445Z,99302.50
2018-06-11T10:15:15.398Z,99303.35
2018-06-11T10:17:45.980Z,99311.45
2018-06-11T10:20:16.201Z,99295.27
2018-06-11T10:22:46.511Z,99304.38
2018-06-11T10:25:16.594Z,99301.33
2018-06-11T10:27:46.805Z,99303.71
2018-06-11T10:30:17.004Z,99306.69
2018-06-11T10:32:47.044Z,99308.53
2018-06-11T10:35:17.118Z,99300.91
2018-06-11T10:37:47.295Z,99316.33
2018-06-11T10:40:17.426Z,99313.45
2018-06-11T10:42:47.459Z,99318.72
2018-06-11T10:45:17.633Z,99309.13
2018-06-11T10:47:47.867Z,99312.48
2018-06-11T10:50:18.670Z,99319.91
2018-06-11T10:52:48.665Z,99315.19
2018-06-11T10:55:18.881Z,99325.19
2018-06-11T10:57:48.815Z,99334.42
2018-06-11T11:00:18.905Z,99326.12
2018-06-11T11:02:48.774Z,99324.57
2018-06-11T11:05:18.995Z,99324.58
2018-06-11T11:07:49.319Z,99319.59
2018-06-11T11:10:19.708Z,99312.83
2018-06-11T11:12:49.846Z,99321.25
2018-06-11T11:15:21.068Z,99322.63
2018-06-11T11:17:51.368Z,99321.30
2018-06-11T11:20:21.741Z,99334.27
2018-06-11T11:22:51.990Z,99334.59
2018-06-11T11:25:22.060Z,99328.33
2018-06-11T11:27:52.712Z,99324.27
2018-06-11T11:30:22.994Z,99321.27
2018-06-11T11:32:53.237Z,99321.77
2018-06-11T11:35:23.574Z,99325.81
2018-06-11T11:37:53.907Z,99315.22
2018-06-11T11:40:24.239Z,99307.10
2018-06-11T11:42:54.220Z,99313.59
2018-06-11T11:45:24.412Z,99307.86
2018-06-11T11:47:54.452Z,99309.72
2018-06-11T11:50:24.841Z,99316.14
2018-06-11T11:52:55.851Z,99316.17
2018-06-11T11:55:26.020Z,99313.14
2018-06-11T11:57:55.954Z,99314.45
2018-06-11T12:00:26.455Z,99312.57
2018-06-11T12:02:57.497Z,99302.86
2018-06-11T12:05:27.971Z,99299.57
2018-06-11T12:07:58.169Z,99297.45
2018-06-11T12:10:28.077Z,99305.97
2018-06-11T12:12:58.259Z,99295.16
2018-06-11T12:15:28.170Z,99295.31
2018-06-11T12:17:58.252Z,99303.48
2018-06-11T12:20:29.139Z,99299.78
2018-06-11T12:22:59.153Z,99292.24
2018-06-11T12:25:29.265Z,99291.70
2018-06-11T12:27:59.465Z,99287.02
2018-06-11T12:30:29.723Z,99285.72
2018-06-11T12:32:59.788Z,99289.31
2018-06-11T12:35:30.008Z,99274.50
2018-06-11T12:38:00.285Z,99290.63
2018-06-11T12:40:30.423Z,99283.47
2018-06-11T12:43:00.649Z,99274.02
2018-06-11T12:45:31.061Z,99273.67
2018-06-11T12:48:00.953Z,99276.47
2018-06-11T12:50:32.013Z,99265.25
2018-06-11T12:53:02.206Z,99270.77
2018-06-11T12:55:32.588Z,99259.95
2018-06-11T12:58:07.299Z,99261.84
2018-06-11T13:00:37.596Z,99253.81
2018-06-11T13:03:07.949Z,99283.25
2018-06-11T13:05:38.113Z,99259.27
2018-06-11T13:08:08.046Z,99261.58
2018-06-11T13:10:38.320Z,99269.70
2018-06-11T13:13:08.581Z,99261.90
2018-06-11T13:15:38.792Z,99266.44
2018-06-11T13:18:08.805Z,99258.05
2018-06-11T13:20:38.972Z,99263.20
2018-06-11T13:23:09.285Z,99262.09
2018-06-11T13:25:39.624Z,99251.84
2018-06-11T13:28:09.896Z,99247.67
2018-06-11T13:30:39.979Z,99245.52
2018-06-11T13:33:10.209Z,99245.77
2018-06-11T13:35:40.496Z,99241.19
2018-06-11T13:38:10.951Z,99230.70
2018-06-11T13:40:41.052Z,99246.48
2018-06-11T13:43:11.053Z,99232.66
2018-06-11T13:45:41.571Z,99233.81
2018-06-11T13:48:11.571Z,99242.57
2018-06-11T13:50:41.692Z,99226.72
2018-06-11T13:53:12.212Z,99223.22
2018-06-11T13:55:42.442Z,99212.16
2018-06-11T13:58:12.466Z,99218.70
2018-06-11T14:00:42.495Z,99213.68
2018-06-11T14:03:12.526Z,99199.27
2018-06-11T14:05:42.713Z,99201.76
2018-06-11T14:08:13.099Z,99189.87
2018-06-11T14:10:43.270Z,99201.02
2018-06-11T14:13:13.518Z,99207.29
2018-06-11T14:15:43.698Z,99205.21
2018-06-11T14:18:13.892Z,99221.23
2018-06-11T14:20:44.143Z,99193.44
2018-06-11T14:23:15.476Z,99200.43
2018-06-11T14:25:45.363Z,99192.80
2018-06-11T14:28:15.604Z,99200.19
2018-06-11T14:30:45.758Z,99190.97
2018-06-11T14:33:15.797Z,99185.80
2018-06-11T14:35:45.949Z,99188.02
2018-06-11T14:38:16.319Z,99190.91
2018-06-11T14:40:46.694Z,99192.43
2018-06-11T14:43:17.948Z,99189.48
2018-06-11T14:45:47.980Z,99207.77
2018-06-11T14:48:18.430Z,99187.75
2018-06-11T14:50:48.462Z,99198.40
2018-06-11T14:53:18.771Z,99190.63
2018-06-11T14:55:48.892Z,99181.11
2018-06-11T14:58:19.161Z,99177.32
2018-06-11T15:00:49.387Z,99170.70
2018-06-11T15:03:19.529Z,99183.22
2018-06-11T15:05:49.825Z,99183.28
2018-06-11T15:08:19.901Z,99173.30
2018-06-11T15:10:50.242Z,99174.70
2018-06-11T15:13:20.349Z,99173.03
2018-06-11T15:15:50.835Z,99173.64
2018-06-11T15:18:22.092Z,99168.31
2018-06-11T15:20:52.141Z,99161.59
2018-06-11T15:23:22.235Z,99151.74
2018-06-11T15:25:52.378Z,99143.77
2018-06-11T15:28:22.711Z,99141.92
2018-06-11T15:30:52.957Z,99132.43
2018-06-11T15:33:23.135Z,99122.80
2018-06-11T15:35:53.419Z,99122.86
2018-06-11T15:38:24.029Z,99121.11
2018-06-11T15:40:54.410Z,99116.38
2018-06-11T15:43:24.556Z,99125.61
2018-06-11T15:45:54.645Z,99113.27
2018-06-11T15:48:24.774Z,99109.50
2018-06-11T15:50:55.085Z,99101.54
2018-06-11T15:53:25.245Z,99112.53
2018-06-11T15:55:55.416Z,99102.00
2018-06-11T15:58:25.708Z,99107.77
2018-06-11T16:00:56.025Z,99090.36
2018-06-11T16:03:26.325Z,99082.81
2018-06-11T16:05:56.521Z,99078.80
2018-06-11T16:08:26.441Z,99082.51
2018-06-11T16:10:56.802Z,99079.07
2018-06-11T16:13:26.973Z,99096.97
2018-06-11T16:15:57.177Z,99103.84
2018-06-11T16:18:27.377Z,99105.00
2018-06-11T16:20:57.684Z,99102.11
2018-06-11T16:23:27.936Z,99098.86
2018-06-11T16:25:57.932Z,99102.52
2018-06-11T16:28:27.901Z,99106.15
2018-06-11T16:30:58.037Z,99104.85
2018-06-11T16:33:28.328Z,99104.44
2018-06-11T16:38:35.011Z,99099.79
2018-06-11T16:41:05.510Z,99097.77
2018-06-11T16:43:35.870Z,99088.91
2018-06-11T16:46:06.039Z,99090.73
2018-06-11T16:48:36.197Z,99088.97
2018-06-11T16:51:07.011Z,99091.02
2018-06-11T16:53:37.489Z,99088.70
2018-06-11T16:56:07.707Z,99084.34
2018-06-11T16:58:37.859Z,99088.34
2018-06-11T17:01:07.566Z,99088.33
2018-06-11T17:03:37.900Z,99091.92
2018-06-11T17:06:07.979Z,99088.27
2018-06-11T17:08:38.510Z,99087.84
2018-06-11T17:11:08.822Z,99082.78
2018-06-11T17:13:39.114Z,99082.77
2018-06-11T17:16:09.342Z,99082.38
2018-06-11T17:18:39.953Z,99078.56
2018-06-11T17:21:10.315Z,99072.82
2018-06-11T17:23:40.478Z,99063.45
2018-06-11T17:26:10.758Z,99064.64
2018-06-11T17:28:41.118Z,99069.09
2018-06-11T17:31:11.528Z,99070.94
2018-06-11T17:33:41.653Z,99071.34
2018-06-11T17:36:12.623Z,99059.45
2018-06-11T17:38:42.732Z,99056.94
2018-06-11T17:41:12.862Z,99061.32
2018-06-11T17:43:42.930Z,99064.47
2018-06-11T17:46:13.143Z,99063.83
2018-06-11T17:48:43.389Z,99061.55
2018-06-11T17:51:13.447Z,99069.25
2018-06-11T17:53:43.761Z,99062.70
2018-06-11T17:56:13.858Z,99066.09
2018-06-11T17:58:44.196Z,99064.15
2018-06-11T18:01:14.262Z,99062.43
2018-06-11T18:03:44.509Z,99067.59
2018-06-11T18:06:14.714Z,99062.28
2018-06-11T18:08:45.021Z,99052.84
2018-06-11T18:11:15.286Z,99056.91
2018-06-11T18:13:45.547Z,99052.25
2018-06-11T18:16:15.635Z,99056.19
2018-06-11T18:18:45.795Z,99060.44
2018-06-11T18:21:16.098Z,99063.44
2018-06-11T18:23:47.116Z,99059.34
2018-06-11T18:26:17.642Z,99063.66
2018-06-11T18:28:47.988Z,99061.41
2018-06-11T18:31:18.273Z,99059.47
2018-06-11T18:33:48.459Z,99055.63
2018-06-11T18:36:18.476Z,99065.94
2018-06-11T18:38:48.622Z,99067.19
2018-06-11T18:41:18.660Z,99062.34
2018-06-11T18:43:48.936Z,99060.37
2018-06-11T18:46:19.063Z,99059.36
2018-06-11T18:48:49.347Z,99046.59
2018-06-11T18:51:19.666Z,99059.80
2018-06-11T18:53:49.846Z,99063.87
2018-06-11T18:56:20.022Z,99061.84
2018-06-11T18:58:50.265Z,99063.33
2018-06-11T19:01:20.532Z,99066.21
2018-06-11T19:03:50.664Z,99058.47
2018-06-11T19:06:20.900Z,99067.06
2018-06-11T19:08:51.313Z,99055.24
2018-06-11T19:11:21.562Z,99059.73
2018-06-11T19:13:52.766Z,99064.36
2018-06-11T19:16:22.800Z,99056.89
2018-06-11T19:18:53.040Z,99059.06
2018-06-11T19:21:23.195Z,99059.30
2018-06-11T19:23:53.566Z,99061.98
2018-06-11T19:26:23.836Z,99050.02
2018-06-11T19:28:54.124Z,99050.61
2018-06-11T19:31:24.347Z,99056.13
2018-06-11T19:33:54.460Z,99060.47
2018-06-11T19:36:24.735Z,99063.97
2018-06-11T19:38:55.107Z,99053.30
2018-06-11T19:41:25.483Z,99052.64
2018-06-11T19:43:55.799Z,99064.84
2018-06-11T19:46:26.043Z,99067.23
2018-06-11T19:48:56.226Z,99069.50
2018-06-11T19:51:26.509Z,99073.63
2018-06-11T19:53:56.417Z,99071.98
2018-06-11T19:56:26.902Z,99074.62
2018-06-11T19:58:57.090Z,99078.56
2018-06-11T20:01:27.180Z,99077.42
2018-06-11T20:03:58.301Z,99078.87
2018-06-11T20:06:28.700Z,99073.64
2018-06-11T20:08:58.520Z,99083.17
2018-06-11T20:11:28.693Z,99083.84
2018-06-11T20:13:58.672Z,99089.62
2018-06-11T20:16:28.765Z,99094.46
2018-06-11T20:18:59.024Z,99090.58
2018-06-11T20:21:29.314Z,99094.52
2018-06-11T20:23:59.354Z,99094.17
2018-06-11T20:26:29.590Z,99092.48
2018-06-11T20:28:59.902Z,99093.48
2018-06-11T20:31:30.199Z,99084.72
2018-06-11T20:34:00.346Z,99088.66
2018-06-11T20:36:30.722Z,99088.66
2018-06-11T20:39:00.836Z,99082.33
2018-06-11T20:41:31.021Z,99084.67
2018-06-11T20:44:01.166Z,99087.29
2018-06-11T20:46:31.495Z,99079.59
2018-06-11T20:49:01.857Z,99086.01
2018-06-11T20:51:32.130Z,99077.61
2018-06-11T20:54:02.209Z,99084.67
2018-06-11T20:56:32.514Z,99080.70
2018-06-11T20:59:03.490Z,99084.31
2018-06-11T21:01:33.953Z,99076.03
2018-06-11T21:04:03.993Z,99072.39
2018-06-11T21:06:34.155Z,99072.88
2018-06-11T21:09:05.210Z,99072.71
2018-06-11T21:11:35.449Z,99074.05
2018-06-11T21:14:05.558Z,99070.34
2018-06-11T21:16:35.848Z,99072.45
2018-06-11T21:19:06.012Z,99076.31
2018-06-11T21:21:36.364Z,99063.73
2018-06-11T21:24:06.725Z,99077.84
2018-06-11T21:26:36.968Z,99076.50
2018-06-11T21:29:07.115Z,99080.89
2018-06-11T21:31:37.380Z,99088.28
2018-06-11T21:34:07.311Z,99083.66
2018-06-11T21:36:37.434Z,99086.03
2018-06-11T21:39:09.656Z,99091.48
2018-06-11T21:41:40.013Z,99090.42
2018-06-11T21:44:10.285Z,99083.42
2018-06-11T21:46:40.627Z,99084.55
2018-06-11T21:49:10.568Z,99076.38
2018-06-11T21:51:40.759Z,99082.58
2018-06-11T21:54:10.600Z,99075.17
2018-06-11T21:56:40.770Z,99075.12
2018-06-11T21:59:11.872Z,99073.57
2018-06-11T22:01:42.192Z,99078.08
2018-06-11T22:04:12.087Z,99071.11
2018-06-11T22:06:42.686Z,99059.06
2018-06-11T22:09:12.713Z,99058.57
2018-06-11T22:11:42.853Z,99050.54
2018-06-11T22:14:13.445Z,99047.02
2018-06-11T22:16:43.519Z,99038.77
2018-06-11T22:19:13.515Z,99035.30
2018-06-11T22:21:43.749Z,99030.85
2018-06-11T22:24:13.738Z,99029.02
2018-06-11T22:26:43.842Z,99029.08
2018-06-11T22:29:14.081Z,99024.41
2018-06-11T22:31:44.171Z,99029.19
2018-06-11T22:34:14.380Z,99026.33
2018-06-11T22:36:44.652Z,99021.78
2018-06-11T22:39:14.908Z,99017.81
2018-06-11T22:41:45.017Z,99018.30
2018-06-11T22:44:15.218Z,99010.09
2018-06-11T22:46:45.111Z,99009.66
2018-06-11T22:49:15.318Z,99013.30
2018-06-11T22:51:45.426Z,99015.66
2018-06-11T22:54:15.449Z,99018.59
2018-06-11T22:56:45.682Z,99020.91
2018-06-11T22:59:15.989Z,99026.88
2018-06-11T23:01:46.392Z,99026.42
2018-06-11T23:04:16.640Z,99020.50
2018-06-11T23:06:46.801Z,99021.06
2018-06-11T23:09:16.916Z,99014.16
2018-06-11T23:11:46.983Z,99015.62
2018-06-11T23:14:16.908Z,99009.07
2018-06-11T23:16:46.976Z,99000.27
2018-06-11T23:19:17.070Z,98997.15
2018-06-11T23:21:47.100Z,99001.55
2018-06-11T23:24:17.179Z,98997.34
2018-06-11T23:26:47.161Z,98999.36
2018-06-11T23:29:17.152Z,98990.44
2018-06-11T23:31:47.077Z,98996.53
2018-06-11T23:34:18.094Z,98992.48
2018-06-11T23:36:48.436Z,98990.14
2018-06-11T23:39:18.383Z,98987.47
2018-06-11T23:41:48.743Z,98987.77
2018-06-11T23:44:18.933Z,98981.13
2018-06-11T23:46:48.929Z,98976.53
2018-06-11T23:49:19.058Z,98977.77
2018-06-11T23:51:49.421Z,98977.99
2018-06-11T23:54:19.766Z,98978.09
2018-06-11T23:56:49.615Z,98977.96
2018-06-11T23:59:19.749Z,98980.99
